Terminal Aerodrome Forecast
Issued by NWS

Home | Current Version | Previous Version | Text Only | Print | Product List | Glossary On
Versions: 1 2 3 4 5 6 7 8 9 10 11 12 13 14 15 16 17 18 19
000
FTUS43 KJKL 270800 AAA
TAFSME
TAF AMD
KSME 270847Z 2709/2806 VRB05KT P6SM VCSH BKN010
     FM271100 VRB04KT P6SM BKN025
     FM271800 VRB05KT P6SM BKN035=

USA.gov is the U.S. government's official web portal to all federal, state and local government web resources and services.